sensor_id;sensor_type;location;lat;lon;timestamp;pressure;altitude;pressure_sealevel;temperature;humidity
6433;BME280;3249;42.690;23.260;2023-12-14T00:00:31;93226.00;;;5.25;100.00
6433;BME280;3249;42.690;23.260;2023-12-14T00:03:03;93220.66;;;5.33;100.00
6433;BME280;3249;42.690;23.260;2023-12-14T00:05:34;93232.78;;;5.38;100.00
6433;BME280;3249;42.690;23.260;2023-12-14T00:08:04;93210.34;;;4.97;100.00
6433;BME280;3249;42.690;23.260;2023-12-14T00:10:34;93223.88;;;5.22;100.00
6433;BME280;3249;42.690;23.260;2023-12-14T00:13:03;93235.41;;;5.31;100.00
6433;BME280;3249;42.690;23.260;2023-12-14T00:15:36;93229.78;;;5.23;100.00
6433;BME280;3249;42.690;23.260;2023-12-14T00:18:08;93223.97;;;4.60;100.00
6433;BME280;3249;42.690;23.260;2023-12-14T00:20:37;93239.75;;;4.99;100.00
6433;BME280;3249;42.690;23.260;2023-12-14T00:23:08;93234.56;;;4.88;100.00
6433;BME280;3249;42.690;23.260;2023-12-14T00:25:37;93233.06;;;5.05;100.00
6433;BME280;3249;42.690;23.260;2023-12-14T00:28:07;93218.63;;;5.17;100.00
6433;BME280;3249;42.690;23.260;2023-12-14T00:30:42;93215.34;;;5.10;100.00
6433;BME280;3249;42.690;23.260;2023-12-14T00:33:12;93225.75;;;5.33;100.00
6433;BME280;3249;42.690;23.260;2023-12-14T00:35:41;93238.88;;;5.12;100.00
6433;BME280;3249;42.690;23.260;2023-12-14T00:38:11;93224.28;;;4.70;100.00
6433;BME280;3249;42.690;23.260;2023-12-14T00:40:40;93226.25;;;4.99;100.00
6433;BME280;3249;42.690;23.260;2023-12-14T00:43:10;93241.59;;;5.17;100.00
6433;BME280;3249;42.690;23.260;2023-12-14T00:45:42;93236.53;;;5.11;100.00
6433;BME280;3249;42.690;23.260;2023-12-14T00:48:12;93230.91;;;5.27;100.00
6433;BME280;3249;42.690;23.260;2023-12-14T00:50:41;93234.53;;;5.19;100.00
6433;BME280;3249;42.690;23.260;2023-12-14T00:53:10;93230.38;;;5.18;100.00
6433;BME280;3249;42.690;23.260;2023-12-14T00:55:40;93225.06;;;5.20;100.00
6433;BME280;3249;42.690;23.260;2023-12-14T00:58:10;93210.38;;;5.22;100.00
6433;BME280;3249;42.690;23.260;2023-12-14T01:00:42;93229.63;;;5.18;100.00
6433;BME280;3249;42.690;23.260;2023-12-14T01:03:12;93228.81;;;4.92;100.00
6433;BME280;3249;42.690;23.260;2023-12-14T01:05:42;93240.56;;;5.00;100.00
6433;BME280;3249;42.690;23.260;2023-12-14T01:08:11;93226.91;;;4.88;100.00
6433;BME280;3249;42.690;23.260;2023-12-14T01:10:40;93234.56;;;5.13;100.00
6433;BME280;3249;42.690;23.260;2023-12-14T01:13:10;93228.88;;;5.11;100.00
6433;BME280;3249;42.690;23.260;2023-12-14T01:15:43;93224.25;;;5.01;100.00
6433;BME280;3249;42.690;23.260;2023-12-14T01:18:12;93211.63;;;4.88;100.00
6433;BME280;3249;42.690;23.260;2023-12-14T01:20:43;93207.50;;;4.87;100.00
6433;BME280;3249;42.690;23.260;2023-12-14T01:23:13;93222.84;;;5.05;100.00
6433;BME280;3249;42.690;23.260;2023-12-14T01:25:46;93222.28;;;5.03;100.00
6433;BME280;3249;42.690;23.260;2023-12-14T01:28:15;93224.53;;;5.18;100.00
6433;BME280;3249;42.690;23.260;2023-12-14T01:30:47;93209.56;;;4.96;100.00
6433;BME280;3249;42.690;23.260;2023-12-14T01:33:16;93218.06;;;5.15;100.00
6433;BME280;3249;42.690;23.260;2023-12-14T01:35:45;93223.84;;;5.04;100.00
6433;BME280;3249;42.690;23.260;2023-12-14T01:38:15;93241.31;;;5.25;100.00
6433;BME280;3249;42.690;23.260;2023-12-14T01:40:44;93208.97;;;5.01;100.00
6433;BME280;3249;42.690;23.260;2023-12-14T01:43:13;93216.50;;;5.14;100.00
6433;BME280;3249;42.690;23.260;2023-12-14T01:45:42;93220.25;;;4.87;100.00
6433;BME280;3249;42.690;23.260;2023-12-14T01:48:15;93231.84;;;5.07;100.00
6433;BME280;3249;42.690;23.260;2023-12-14T01:50:44;93204.72;;;4.88;100.00
6433;BME280;3249;42.690;23.260;2023-12-14T01:53:15;93216.38;;;4.78;100.00
6433;BME280;3249;42.690;23.260;2023-12-14T01:55:44;93221.03;;;4.87;100.00
6433;BME280;3249;42.690;23.260;2023-12-14T01:58:13;93205.78;;;4.81;100.00
6433;BME280;3249;42.690;23.260;2023-12-14T02:00:46;93178.91;;;4.23;100.00
6433;BME280;3249;42.690;23.260;2023-12-14T02:03:21;93214.09;;;4.70;100.00
6433;BME280;3249;42.690;23.260;2023-12-14T02:05:50;93193.13;;;4.37;100.00
6433;BME280;3249;42.690;23.260;2023-12-14T02:08:19;93194.19;;;4.54;100.00
6433;BME280;3249;42.690;23.260;2023-12-14T02:10:49;93203.78;;;4.58;100.00
6433;BME280;3249;42.690;23.260;2023-12-14T02:13:21;93193.19;;;4.61;100.00
6433;BME280;3249;42.690;23.260;2023-12-14T02:15:52;93191.06;;;4.21;100.00
6433;BME280;3249;42.690;23.260;2023-12-14T02:18:23;93186.59;;;4.47;100.00
6433;BME280;3249;42.690;23.260;2023-12-14T02:20:53;93176.69;;;4.33;100.00
6433;BME280;3249;42.690;23.260;2023-12-14T02:23:27;93187.00;;;4.44;100.00
6433;BME280;3249;42.690;23.260;2023-12-14T02:25:56;93185.75;;;4.60;100.00
6433;BME280;3249;42.690;23.260;2023-12-14T02:28:27;93175.41;;;4.48;100.00
6433;BME280;3249;42.690;23.260;2023-12-14T02:30:56;93183.50;;;4.39;100.00
6433;BME280;3249;42.690;23.260;2023-12-14T02:33:26;93186.69;;;4.34;100.00
6433;BME280;3249;42.690;23.260;2023-12-14T02:35:55;93182.06;;;4.56;100.00
6433;BME280;3249;42.690;23.260;2023-12-14T02:38:27;93178.94;;;4.78;100.00
6433;BME280;3249;42.690;23.260;2023-12-14T02:40:56;93192.75;;;4.64;100.00
6433;BME280;3249;42.690;23.260;2023-12-14T02:43:26;93180.00;;;4.64;100.00
6433;BME280;3249;42.690;23.260;2023-12-14T02:45:55;93194.28;;;4.72;100.00
6433;BME280;3249;42.690;23.260;2023-12-14T02:48:28;93164.91;;;4.69;100.00
6433;BME280;3249;42.690;23.260;2023-12-14T02:50:58;93202.75;;;4.66;100.00
6433;BME280;3249;42.690;23.260;2023-12-14T02:53:31;93202.34;;;4.69;100.00
6433;BME280;3249;42.690;23.260;2023-12-14T02:56:01;93217.31;;;4.83;100.00
6433;BME280;3249;42.690;23.260;2023-12-14T02:58:30;93186.81;;;4.46;100.00
6433;BME280;3249;42.690;23.260;2023-12-14T03:00:59;93214.28;;;4.68;100.00
6433;BME280;3249;42.690;23.260;2023-12-14T03:03:29;93192.28;;;4.74;100.00
6433;BME280;3249;42.690;23.260;2023-12-14T03:05:59;93201.81;;;4.85;100.00
6433;BME280;3249;42.690;23.260;2023-12-14T03:08:31;93199.69;;;4.57;100.00
6433;BME280;3249;42.690;23.260;2023-12-14T03:11:00;93174.72;;;4.35;100.00
6433;BME280;3249;42.690;23.260;2023-12-14T03:13:29;93193.69;;;4.70;100.00
6433;BME280;3249;42.690;23.260;2023-12-14T03:15:58;93171.91;;;4.74;100.00
6433;BME280;3249;42.690;23.260;2023-12-14T03:18:27;93179.13;;;4.77;100.00
6433;BME280;3249;42.690;23.260;2023-12-14T03:20:57;93175.25;;;4.74;100.00
6433;BME280;3249;42.690;23.260;2023-12-14T03:23:26;93175.28;;;4.68;100.00
6433;BME280;3249;42.690;23.260;2023-12-14T03:25:58;93182.72;;;4.94;100.00
6433;BME280;3249;42.690;23.260;2023-12-14T03:28:27;93178.63;;;4.93;100.00
6433;BME280;3249;42.690;23.260;2023-12-14T03:30:57;93167.38;;;5.00;100.00
6433;BME280;3249;42.690;23.260;2023-12-14T03:33:26;93170.78;;;4.94;100.00
6433;BME280;3249;42.690;23.260;2023-12-14T03:35:55;93167.38;;;5.00;100.00
6433;BME280;3249;42.690;23.260;2023-12-14T03:38:26;93140.56;;;4.73;100.00
6433;BME280;3249;42.690;23.260;2023-12-14T03:40:57;93144.53;;;4.87;100.00
6433;BME280;3249;42.690;23.260;2023-12-14T03:43:27;93140.44;;;5.11;100.00
6433;BME280;3249;42.690;23.260;2023-12-14T03:45:57;93148.94;;;5.23;100.00
6433;BME280;3249;42.690;23.260;2023-12-14T03:48:26;93135.44;;;4.98;100.00
6433;BME280;3249;42.690;23.260;2023-12-14T03:50:55;93137.28;;;4.91;100.00
6433;BME280;3249;42.690;23.260;2023-12-14T03:53:24;93135.88;;;5.13;100.00
6433;BME280;3249;42.690;23.260;2023-12-14T03:55:54;93136.09;;;5.12;100.00
6433;BME280;3249;42.690;23.260;2023-12-14T03:58:26;93124.19;;;5.24;100.00
6433;BME280;3249;42.690;23.260;2023-12-14T04:00:56;93144.97;;;5.27;100.00
6433;BME280;3249;42.690;23.260;2023-12-14T04:03:25;93110.31;;;5.02;100.00
6433;BME280;3249;42.690;23.260;2023-12-14T04:05:54;93152.69;;;5.21;100.00
6433;BME280;3249;42.690;23.260;2023-12-14T04:08:23;93143.78;;;4.87;100.00
6433;BME280;3249;42.690;23.260;2023-12-14T04:10:53;93148.09;;;4.86;100.00
6433;BME280;3249;42.690;23.260;2023-12-14T04:13:22;93149.97;;;4.97;100.00
6433;BME280;3249;42.690;23.260;2023-12-14T04:15:54;93146.13;;;4.64;100.00
6433;BME280;3249;42.690;23.260;2023-12-14T04:18:24;93161.91;;;4.97;100.00
6433;BME280;3249;42.690;23.260;2023-12-14T04:20:53;93159.91;;;5.06;100.00
6433;BME280;3249;42.690;23.260;2023-12-14T04:23:22;93164.41;;;5.03;100.00
6433;BME280;3249;42.690;23.260;2023-12-14T04:25:52;93160.13;;;5.22;100.00
6433;BME280;3249;42.690;23.260;2023-12-14T04:28:22;93136.28;;;4.92;100.00
6433;BME280;3249;42.690;23.260;2023-12-14T04:30:54;93169.75;;;5.20;100.00
6433;BME280;3249;42.690;23.260;2023-12-14T04:33:23;93153.59;;;5.26;100.00
6433;BME280;3249;42.690;23.260;2023-12-14T04:35:52;93158.94;;;5.43;100.00
6433;BME280;3249;42.690;23.260;2023-12-14T04:38:21;93149.66;;;5.48;100.00
6433;BME280;3249;42.690;23.260;2023-12-14T04:40:50;93167.66;;;5.71;100.00
6433;BME280;3249;42.690;23.260;2023-12-14T04:43:20;93140.44;;;5.47;100.00
6433;BME280;3249;42.690;23.260;2023-12-14T04:45:49;93160.09;;;5.65;100.00
6433;BME280;3249;42.690;23.260;2023-12-14T04:48:22;93153.47;;;5.75;100.00
6433;BME280;3249;42.690;23.260;2023-12-14T04:50:51;93167.66;;;5.89;100.00
6433;BME280;3249;42.690;23.260;2023-12-14T04:53:20;93170.13;;;5.78;100.00
6433;BME280;3249;42.690;23.260;2023-12-14T04:55:50;93166.13;;;5.88;100.00
6433;BME280;3249;42.690;23.260;2023-12-14T04:58:20;93157.94;;;5.26;100.00
6433;BME280;3249;42.690;23.260;2023-12-14T05:00:49;93172.34;;;5.56;100.00
6433;BME280;3249;42.690;23.260;2023-12-14T05:03:22;93160.13;;;5.58;100.00
6433;BME280;3249;42.690;23.260;2023-12-14T05:05:51;93162.78;;;5.70;100.00
6433;BME280;3249;42.690;23.260;2023-12-14T05:08:21;93171.78;;;5.72;100.00
6433;BME280;3249;42.690;23.260;2023-12-14T05:10:50;93160.06;;;5.47;100.00
6433;BME280;3249;42.690;23.260;2023-12-14T05:13:19;93171.84;;;5.66;100.00
6433;BME280;3249;42.690;23.260;2023-12-14T05:15:51;93162.56;;;5.71;100.00
6433;BME280;3249;42.690;23.260;2023-12-14T05:18:23;93154.22;;;5.82;100.00
6433;BME280;3249;42.690;23.260;2023-12-14T05:20:53;93150.22;;;5.50;100.00
6433;BME280;3249;42.690;23.260;2023-12-14T05:23:23;93177.66;;;5.73;100.00
6433;BME280;3249;42.690;23.260;2023-12-14T05:25:52;93174.81;;;5.63;100.00
6433;BME280;3249;42.690;23.260;2023-12-14T05:28:21;93166.53;;;5.31;100.00
6433;BME280;3249;42.690;23.260;2023-12-14T05:30:48;93163.94;;;5.13;100.00
6433;BME280;3249;42.690;23.260;2023-12-14T05:33:17;93167.66;;;5.35;100.00
6433;BME280;3249;42.690;23.260;2023-12-14T05:35:50;93175.97;;;5.49;100.00
6433;BME280;3249;42.690;23.260;2023-12-14T05:38:20;93179.81;;;5.33;100.00
6433;BME280;3249;42.690;23.260;2023-12-14T05:40:49;93186.94;;;5.49;100.00
6433;BME280;3249;42.690;23.260;2023-12-14T05:43:18;93181.72;;;5.20;100.00
6433;BME280;3249;42.690;23.260;2023-12-14T05:45:47;93169.63;;;5.15;100.00
6433;BME280;3249;42.690;23.260;2023-12-14T05:48:16;93181.69;;;5.44;100.00
6433;BME280;3249;42.690;23.260;2023-12-14T05:50:51;93191.41;;;5.54;100.00
6433;BME280;3249;42.690;23.260;2023-12-14T05:53:20;93190.16;;;5.20;100.00
6433;BME280;3249;42.690;23.260;2023-12-14T05:55:49;93184.91;;;4.90;100.00
6433;BME280;3249;42.690;23.260;2023-12-14T05:58:19;93200.09;;;5.28;100.00
6433;BME280;3249;42.690;23.260;2023-12-14T06:00:48;93195.13;;;5.15;100.00
6433;BME280;3249;42.690;23.260;2023-12-14T06:03:17;93197.81;;;5.38;100.00
6433;BME280;3249;42.690;23.260;2023-12-14T06:05:49;93209.47;;;5.52;100.00
6433;BME280;3249;42.690;23.260;2023-12-14T06:08:18;93183.66;;;5.24;100.00
6433;BME280;3249;42.690;23.260;2023-12-14T06:10:48;93210.84;;;5.30;100.00
6433;BME280;3249;42.690;23.260;2023-12-14T06:13:17;93202.66;;;5.28;100.00
6433;BME280;3249;42.690;23.260;2023-12-14T06:15:47;93189.81;;;5.35;100.00
6433;BME280;3249;42.690;23.260;2023-12-14T06:18:16;93210.03;;;5.54;100.00
6433;BME280;3249;42.690;23.260;2023-12-14T06:20:45;93198.13;;;5.48;100.00
6433;BME280;3249;42.690;23.260;2023-12-14T06:23:18;93218.47;;;5.55;100.00
6433;BME280;3249;42.690;23.260;2023-12-14T06:25:47;93204.94;;;5.72;100.00
6433;BME280;3249;42.690;23.260;2023-12-14T06:28:17;93213.78;;;5.94;100.00
6433;BME280;3249;42.690;23.260;2023-12-14T06:30:47;93222.53;;;6.16;100.00
6433;BME280;3249;42.690;23.260;2023-12-14T06:33:16;93220.81;;;6.28;100.00
6433;BME280;3249;42.690;23.260;2023-12-14T06:35:45;93220.63;;;6.30;100.00
6433;BME280;3249;42.690;23.260;2023-12-14T06:38:17;93227.25;;;6.49;100.00
6433;BME280;3249;42.690;23.260;2023-12-14T06:40:46;93232.69;;;6.52;100.00
6433;BME280;3249;42.690;23.260;2023-12-14T06:43:16;93244.16;;;6.61;100.00
6433;BME280;3249;42.690;23.260;2023-12-14T06:45:45;93240.25;;;6.77;100.00
6433;BME280;3249;42.690;23.260;2023-12-14T06:48:14;93246.81;;;6.84;100.00
6433;BME280;3249;42.690;23.260;2023-12-14T06:50:43;93259.28;;;6.92;100.00
6433;BME280;3249;42.690;23.260;2023-12-14T06:53:13;93243.31;;;6.67;100.00
6433;BME280;3249;42.690;23.260;2023-12-14T06:55:45;93254.16;;;6.81;100.00
6433;BME280;3249;42.690;23.260;2023-12-14T06:58:15;93249.25;;;6.79;100.00
6433;BME280;3249;42.690;23.260;2023-12-14T07:00:44;93245.53;;;6.64;100.00
6433;BME280;3249;42.690;23.260;2023-12-14T07:03:13;93245.69;;;6.51;100.00
6433;BME280;3249;42.690;23.260;2023-12-14T07:05:43;93240.03;;;6.78;100.00
6433;BME280;3249;42.690;23.260;2023-12-14T07:08:12;93260.53;;;7.01;100.00
6433;BME280;3249;42.690;23.260;2023-12-14T07:10:41;93266.47;;;7.13;100.00
6433;BME280;3249;42.690;23.260;2023-12-14T07:13:13;93251.50;;;6.87;100.00
6433;BME280;3249;42.690;23.260;2023-12-14T07:15:43;93260.31;;;7.03;100.00
6433;BME280;3249;42.690;23.260;2023-12-14T07:18:12;93267.22;;;7.14;100.00
6433;BME280;3249;42.690;23.260;2023-12-14T07:20:41;93249.53;;;7.01;100.00
6433;BME280;3249;42.690;23.260;2023-12-14T07:23:11;93276.72;;;7.13;100.00
6433;BME280;3249;42.690;23.260;2023-12-14T07:25:40;93287.84;;;7.30;100.00
6433;BME280;3249;42.690;23.260;2023-12-14T07:28:10;93289.84;;;7.28;100.00
6433;BME280;3249;42.690;23.260;2023-12-14T07:30:41;93273.75;;;7.62;100.00
6433;BME280;3249;42.690;23.260;2023-12-14T07:33:11;93285.91;;;7.78;100.00
6433;BME280;3249;42.690;23.260;2023-12-14T07:35:41;93275.31;;;7.86;100.00
6433;BME280;3249;42.690;23.260;2023-12-14T07:38:10;93287.44;;;8.02;100.00
6433;BME280;3249;42.690;23.260;2023-12-14T07:40:39;93305.22;;;8.20;100.00
6433;BME280;3249;42.690;23.260;2023-12-14T07:43:09;93302.56;;;8.15;100.00
6433;BME280;3249;42.690;23.260;2023-12-14T07:45:41;93291.44;;;8.10;100.00
6433;BME280;3249;42.690;23.260;2023-12-14T07:48:11;93299.13;;;8.33;100.00
6433;BME280;3249;42.690;23.260;2023-12-14T07:50:41;93294.88;;;8.38;100.00
6433;BME280;3249;42.690;23.260;2023-12-14T07:53:12;93310.44;;;8.60;100.00
6433;BME280;3249;42.690;23.260;2023-12-14T07:55:41;93289.41;;;8.46;100.00
6433;BME280;3249;42.690;23.260;2023-12-14T07:58:10;93303.63;;;8.54;100.00
6433;BME280;3249;42.690;23.260;2023-12-14T08:00:42;93310.13;;;8.45;100.00
6433;BME280;3249;42.690;23.260;2023-12-14T08:03:11;93311.41;;;8.70;100.00
6433;BME280;3249;42.690;23.260;2023-12-14T08:05:40;93315.28;;;8.84;100.00
6433;BME280;3249;42.690;23.260;2023-12-14T08:08:10;93319.19;;;9.03;100.00
6433;BME280;3249;42.690;23.260;2023-12-14T08:10:40;93306.66;;;8.90;100.00
6433;BME280;3249;42.690;23.260;2023-12-14T08:13:25;93256.34;;;8.61;100.00
6433;BME280;3249;42.690;23.260;2023-12-14T08:16:02;93310.16;;;9.01;100.00
6433;BME280;3249;42.690;23.260;2023-12-14T08:18:31;93309.50;;;8.77;100.00
6433;BME280;3249;42.690;23.260;2023-12-14T08:21:10;93310.38;;;9.11;100.00
6433;BME280;3249;42.690;23.260;2023-12-14T08:23:39;93319.00;;;9.21;100.00
6433;BME280;3249;42.690;23.260;2023-12-14T08:26:08;93302.69;;;8.99;100.00
6433;BME280;3249;42.690;23.260;2023-12-14T08:28:39;93316.75;;;9.25;100.00
6433;BME280;3249;42.690;23.260;2023-12-14T08:31:11;93308.56;;;9.11;100.00
6433;BME280;3249;42.690;23.260;2023-12-14T08:33:41;93306.09;;;9.33;100.00
6433;BME280;3249;42.690;23.260;2023-12-14T08:36:10;93326.53;;;9.56;100.00
6433;BME280;3249;42.690;23.260;2023-12-14T08:38:44;93319.84;;;9.72;100.00
6433;BME280;3249;42.690;23.260;2023-12-14T08:41:14;93316.63;;;9.81;100.00
6433;BME280;3249;42.690;23.260;2023-12-14T08:43:43;93321.69;;;9.93;100.00
6433;BME280;3249;42.690;23.260;2023-12-14T08:46:15;93331.34;;;10.02;100.00
6433;BME280;3249;42.690;23.260;2023-12-14T08:48:44;93339.63;;;10.21;100.00
6433;BME280;3249;42.690;23.260;2023-12-14T08:51:15;93320.75;;;10.15;100.00
6433;BME280;3249;42.690;23.260;2023-12-14T08:53:45;93318.75;;;10.39;100.00
6433;BME280;3249;42.690;23.260;2023-12-14T08:56:14;93332.28;;;10.51;100.00
6433;BME280;3249;42.690;23.260;2023-12-14T08:58:43;93331.22;;;10.47;100.00
6433;BME280;3249;42.690;23.260;2023-12-14T09:01:22;93331.72;;;10.65;100.00
6433;BME280;3249;42.690;23.260;2023-12-14T09:03:52;93348.47;;;10.68;100.00
6433;BME280;3249;42.690;23.260;2023-12-14T09:06:21;93320.81;;;10.80;100.00
6433;BME280;3249;42.690;23.260;2023-12-14T09:08:50;93339.19;;;10.88;100.00
6433;BME280;3249;42.690;23.260;2023-12-14T09:11:19;93333.59;;;10.96;97.95
6433;BME280;3249;42.690;23.260;2023-12-14T09:13:48;93328.84;;;11.10;97.15
6433;BME280;3249;42.690;23.260;2023-12-14T09:16:18;93322.59;;;11.27;94.00
6433;BME280;3249;42.690;23.260;2023-12-14T09:18:50;93329.84;;;11.30;93.63
6433;BME280;3249;42.690;23.260;2023-12-14T09:21:19;93329.06;;;11.30;91.39
6433;BME280;3249;42.690;23.260;2023-12-14T09:23:48;93336.41;;;11.43;92.35
6433;BME280;3249;42.690;23.260;2023-12-14T09:26:19;93320.69;;;11.44;89.98
6433;BME280;3249;42.690;23.260;2023-12-14T09:28:48;93335.00;;;11.57;89.06
6433;BME280;3249;42.690;23.260;2023-12-14T09:31:18;93342.88;;;11.72;88.03
6433;BME280;3249;42.690;23.260;2023-12-14T09:33:49;93344.53;;;11.83;86.23
6433;BME280;3249;42.690;23.260;2023-12-14T09:36:19;93356.75;;;11.97;86.41
6433;BME280;3249;42.690;23.260;2023-12-14T09:38:48;93363.13;;;11.90;85.06
6433;BME280;3249;42.690;23.260;2023-12-14T09:41:17;93359.66;;;12.06;82.76
6433;BME280;3249;42.690;23.260;2023-12-14T09:43:46;93359.69;;;12.11;83.15
6433;BME280;3249;42.690;23.260;2023-12-14T09:46:17;93356.19;;;12.27;80.27
6433;BME280;3249;42.690;23.260;2023-12-14T09:48:50;93362.78;;;12.08;81.43
6433;BME280;3249;42.690;23.260;2023-12-14T09:51:20;93365.34;;;12.08;81.84
6433;BME280;3249;42.690;23.260;2023-12-14T09:53:49;93373.03;;;12.39;78.80
6433;BME280;3249;42.690;23.260;2023-12-14T09:56:24;93373.34;;;12.43;78.04
6433;BME280;3249;42.690;23.260;2023-12-14T09:58:53;93365.00;;;12.31;77.95
6433;BME280;3249;42.690;23.260;2023-12-14T10:01:24;93373.34;;;12.48;77.71
6433;BME280;3249;42.690;23.260;2023-12-14T10:04:08;93362.50;;;11.78;93.42
6433;BME280;3249;42.690;23.260;2023-12-14T10:06:39;93355.78;;;11.72;94.78
6433;BME280;3249;42.690;23.260;2023-12-14T10:09:10;93359.69;;;12.11;93.71
6433;BME280;3249;42.690;23.260;2023-12-14T10:11:44;93365.25;;;12.29;89.14
6433;BME280;3249;42.690;23.260;2023-12-14T10:14:24;93363.72;;;12.33;90.61
6433;BME280;3249;42.690;23.260;2023-12-14T10:16:54;93365.28;;;12.39;92.93
6433;BME280;3249;42.690;23.260;2023-12-14T10:19:27;93365.84;;;12.41;93.15
6433;BME280;3249;42.690;23.260;2023-12-14T10:21:56;93357.09;;;12.47;91.95
6433;BME280;3249;42.690;23.260;2023-12-14T10:24:27;93353.84;;;11.89;95.89
6433;BME280;3249;42.690;23.260;2023-12-14T10:26:57;93355.97;;;12.28;93.35
6433;BME280;3249;42.690;23.260;2023-12-14T10:29:27;93356.81;;;12.44;91.66
6433;BME280;3249;42.690;23.260;2023-12-14T10:31:56;93357.03;;;12.37;91.01
6433;BME280;3249;42.690;23.260;2023-12-14T10:34:28;93368.94;;;12.43;91.38
6433;BME280;3249;42.690;23.260;2023-12-14T10:36:59;93360.88;;;12.30;99.38
6433;BME280;3249;42.690;23.260;2023-12-14T10:39:30;93357.66;;;11.81;100.00
6433;BME280;3249;42.690;23.260;2023-12-14T10:42:02;93357.50;;;11.40;100.00
6433;BME280;3249;42.690;23.260;2023-12-14T10:44:36;93362.22;;;11.48;100.00
6433;BME280;3249;42.690;23.260;2023-12-14T10:47:06;93364.16;;;11.36;100.00
6433;BME280;3249;42.690;23.260;2023-12-14T10:49:38;93367.59;;;11.41;100.00
6433;BME280;3249;42.690;23.260;2023-12-14T10:52:10;93374.38;;;11.04;100.00
6433;BME280;3249;42.690;23.260;2023-12-14T10:54:40;93384.56;;;11.16;100.00
6433;BME280;3249;42.690;23.260;2023-12-14T10:57:10;93394.28;;;11.09;100.00
6433;BME280;3249;42.690;23.260;2023-12-14T10:59:41;93385.59;;;10.72;100.00
6433;BME280;3249;42.690;23.260;2023-12-14T11:02:11;93403.78;;;10.49;100.00
6433;BME280;3249;42.690;23.260;2023-12-14T11:04:59;93417.47;;;10.33;100.00
6433;BME280;3249;42.690;23.260;2023-12-14T11:07:47;93405.16;;;10.18;100.00
6433;BME280;3249;42.690;23.260;2023-12-14T11:10:23;93408.47;;;9.86;100.00
6433;BME280;3249;42.690;23.260;2023-12-14T11:12:57;93415.53;;;9.79;100.00
6433;BME280;3249;42.690;23.260;2023-12-14T11:15:29;93418.41;;;9.66;100.00
6433;BME280;3249;42.690;23.260;2023-12-14T11:18:27;93427.88;;;9.48;100.00
6433;BME280;3249;42.690;23.260;2023-12-14T11:21:01;93426.47;;;9.29;100.00
6433;BME280;3249;42.690;23.260;2023-12-14T11:23:36;93436.75;;;9.29;100.00
6433;BME280;3249;42.690;23.260;2023-12-14T11:26:09;93437.78;;;9.28;100.00
6433;BME280;3249;42.690;23.260;2023-12-14T11:28:40;93441.81;;;9.13;100.00
6433;BME280;3249;42.690;23.260;2023-12-14T11:31:12;93452.31;;;9.11;100.00
6433;BME280;3249;42.690;23.260;2023-12-14T11:33:41;93457.13;;;9.08;100.00
6433;BME280;3249;42.690;23.260;2023-12-14T11:36:14;93436.75;;;8.78;100.00
6433;BME280;3249;42.690;23.260;2023-12-14T11:38:43;93453.16;;;8.77;100.00
6433;BME280;3249;42.690;23.260;2023-12-14T11:41:13;93468.47;;;8.72;100.00
6433;BME280;3249;42.690;23.260;2023-12-14T11:43:43;93469.66;;;8.70;100.00
6433;BME280;3249;42.690;23.260;2023-12-14T11:46:14;93469.34;;;8.66;100.00
6433;BME280;3249;42.690;23.260;2023-12-14T11:48:44;93489.66;;;8.56;100.00
6433;BME280;3249;42.690;23.260;2023-12-14T11:51:17;93448.72;;;8.38;100.00
6433;BME280;3249;42.690;23.260;2023-12-14T11:53:47;93489.31;;;8.64;100.00
6433;BME280;3249;42.690;23.260;2023-12-14T11:56:18;93503.13;;;8.63;100.00
6433;BME280;3249;42.690;23.260;2023-12-14T11:58:49;93503.25;;;8.45;100.00
6433;BME280;3249;42.690;23.260;2023-12-14T12:01:20;93497.75;;;8.42;100.00
6433;BME280;3249;42.690;23.260;2023-12-14T12:03:51;93472.59;;;7.98;100.00
6433;BME280;3249;42.690;23.260;2023-12-14T12:06:25;93504.75;;;8.23;100.00
6433;BME280;3249;42.690;23.260;2023-12-14T12:08:54;93502.59;;;8.20;100.00
6433;BME280;3249;42.690;23.260;2023-12-14T12:11:25;93488.91;;;8.15;100.00
6433;BME280;3249;42.690;23.260;2023-12-14T12:13:56;93488.94;;;8.26;100.00
6433;BME280;3249;42.690;23.260;2023-12-14T12:16:26;93518.44;;;8.17;100.00
6433;BME280;3249;42.690;23.260;2023-12-14T12:18:55;93500.03;;;8.20;100.00
6433;BME280;3249;42.690;23.260;2023-12-14T12:21:27;93511.69;;;8.23;100.00
6433;BME280;3249;42.690;23.260;2023-12-14T12:23:56;93520.78;;;8.19;100.00
6433;BME280;3249;42.690;23.260;2023-12-14T12:26:26;93511.91;;;8.21;100.00
6433;BME280;3249;42.690;23.260;2023-12-14T12:28:55;93518.19;;;8.07;100.00
6433;BME280;3249;42.690;23.260;2023-12-14T12:31:24;93516.75;;;8.11;100.00
6433;BME280;3249;42.690;23.260;2023-12-14T12:33:53;93522.75;;;8.05;100.00
6433;BME280;3249;42.690;23.260;2023-12-14T12:36:22;93510.50;;;8.07;100.00
6433;BME280;3249;42.690;23.260;2023-12-14T12:38:55;93528.19;;;7.97;100.00
6433;BME280;3249;42.690;23.260;2023-12-14T12:41:25;93519.94;;;7.95;100.00
6433;BME280;3249;42.690;23.260;2023-12-14T12:43:54;93518.06;;;8.02;100.00
6433;BME280;3249;42.690;23.260;2023-12-14T12:46:23;93530.38;;;7.94;100.00
6433;BME280;3249;42.690;23.260;2023-12-14T12:48:53;93512.13;;;7.90;100.00
6433;BME280;3249;42.690;23.260;2023-12-14T12:51:22;93513.56;;;7.86;100.00
6433;BME280;3249;42.690;23.260;2023-12-14T12:53:51;93541.66;;;7.93;100.00
6433;BME280;3249;42.690;23.260;2023-12-14T12:56:24;93514.25;;;7.93;100.00
6433;BME280;3249;42.690;23.260;2023-12-14T12:58:54;93507.03;;;7.72;100.00
6433;BME280;3249;42.690;23.260;2023-12-14T13:01:23;93525.19;;;7.71;100.00
6433;BME280;3249;42.690;23.260;2023-12-14T13:03:54;93514.03;;;7.65;100.00
6433;BME280;3249;42.690;23.260;2023-12-14T13:06:24;93534.13;;;7.80;100.00
6433;BME280;3249;42.690;23.260;2023-12-14T13:08:54;93524.53;;;7.75;100.00
6433;BME280;3249;42.690;23.260;2023-12-14T13:11:26;93511.31;;;7.78;100.00
6433;BME280;3249;42.690;23.260;2023-12-14T13:13:56;93547.53;;;7.64;100.00
6433;BME280;3249;42.690;23.260;2023-12-14T13:16:29;93517.78;;;7.63;100.00
6433;BME280;3249;42.690;23.260;2023-12-14T13:18:58;93523.78;;;7.57;100.00
6433;BME280;3249;42.690;23.260;2023-12-14T13:21:29;93536.69;;;7.50;100.00
6433;BME280;3249;42.690;23.260;2023-12-14T13:24:03;93517.13;;;7.56;100.00
6433;BME280;3249;42.690;23.260;2023-12-14T13:26:36;93523.38;;;7.60;100.00